sensor_id;sensor_type;location;lat;lon;timestamp;pressure;altitude;pressure_sealevel;temperature;humidity
64841;BME280;51307;52.162;7.560;2022-12-15T00:00:47;100017.78;;;-6.28;81.05
64841;BME280;51307;52.162;7.560;2022-12-15T00:03:31;100013.38;;;-6.24;81.21
64841;BME280;51307;52.162;7.560;2022-12-15T00:06:15;100010.00;;;-6.25;81.49
64841;BME280;51307;52.162;7.560;2022-12-15T00:08:59;100016.75;;;-6.24;81.28
64841;BME280;51307;52.162;7.560;2022-12-15T00:11:44;100015.34;;;-6.31;81.11
64841;BME280;51307;52.162;7.560;2022-12-15T00:14:28;100019.44;;;-6.47;81.63
64841;BME280;51307;52.162;7.560;2022-12-15T00:17:12;100023.59;;;-6.46;81.48
64841;BME280;51307;52.162;7.560;2022-12-15T00:19:56;100032.25;;;-6.30;81.29
64841;BME280;51307;52.162;7.560;2022-12-15T00:22:40;100027.22;;;-6.32;81.34
64841;BME280;51307;52.162;7.560;2022-12-15T00:25:23;100034.53;;;-6.44;81.53
64841;BME280;51307;52.162;7.560;2022-12-15T00:28:07;100030.53;;;-6.30;81.80
64841;BME280;51307;52.162;7.560;2022-12-15T00:30:51;100030.72;;;-6.34;81.95
64841;BME280;51307;52.162;7.560;2022-12-15T00:33:36;100038.88;;;-6.26;81.75
64841;BME280;51307;52.162;7.560;2022-12-15T00:36:19;100036.56;;;-6.32;81.72
64841;BME280;51307;52.162;7.560;2022-12-15T00:39:03;100036.44;;;-6.29;81.40
64841;BME280;51307;52.162;7.560;2022-12-15T00:41:28;100020.22;;;-6.27;81.63
64841;BME280;51307;52.162;7.560;2022-12-15T00:43:54;100025.50;;;-6.31;81.47
64841;BME280;51307;52.162;7.560;2022-12-15T00:46:19;100026.81;;;-6.41;81.37
64841;BME280;51307;52.162;7.560;2022-12-15T00:49:04;100048.00;;;-6.42;81.29
64841;BME280;51307;52.162;7.560;2022-12-15T00:51:49;100039.81;;;-6.49;81.29
64841;BME280;51307;52.162;7.560;2022-12-15T00:54:33;100040.31;;;-6.41;81.20
64841;BME280;51307;52.162;7.560;2022-12-15T00:57:17;100039.84;;;-6.51;81.05
64841;BME280;51307;52.162;7.560;2022-12-15T01:00:01;100038.59;;;-6.40;81.07
64841;BME280;51307;52.162;7.560;2022-12-15T01:02:45;100040.84;;;-6.75;81.46
64841;BME280;51307;52.162;7.560;2022-12-15T01:05:29;100051.44;;;-6.86;81.56
64841;BME280;51307;52.162;7.560;2022-12-15T01:08:13;100049.03;;;-6.69;81.17
64841;BME280;51307;52.162;7.560;2022-12-15T01:10:59;100053.25;;;-6.67;81.44
64841;BME280;51307;52.162;7.560;2022-12-15T01:13:43;100054.56;;;-6.79;81.58
64841;BME280;51307;52.162;7.560;2022-12-15T01:16:27;100046.88;;;-6.78;81.26
64841;BME280;51307;52.162;7.560;2022-12-15T01:19:11;100046.03;;;-6.99;81.81
64841;BME280;51307;52.162;7.560;2022-12-15T01:21:55;100041.41;;;-6.89;81.75
64841;BME280;51307;52.162;7.560;2022-12-15T01:24:21;100056.59;;;-6.87;81.97
64841;BME280;51307;52.162;7.560;2022-12-15T01:26:46;100057.28;;;-6.84;81.68
64841;BME280;51307;52.162;7.560;2022-12-15T01:29:11;100054.09;;;-6.89;81.88
64841;BME280;51307;52.162;7.560;2022-12-15T01:31:37;100053.47;;;-6.94;81.92
64841;BME280;51307;52.162;7.560;2022-12-15T01:34:02;100065.88;;;-6.88;82.15
64841;BME280;51307;52.162;7.560;2022-12-15T01:36:28;100060.88;;;-6.90;81.90
64841;BME280;51307;52.162;7.560;2022-12-15T01:38:54;100067.97;;;-6.98;81.92
64841;BME280;51307;52.162;7.560;2022-12-15T01:41:19;100056.63;;;-6.89;81.85
64841;BME280;51307;52.162;7.560;2022-12-15T01:43:45;100060.34;;;-6.98;82.03
64841;BME280;51307;52.162;7.560;2022-12-15T01:46:15;100055.16;;;-6.95;81.91
64841;BME280;51307;52.162;7.560;2022-12-15T01:49:00;100067.00;;;-6.73;81.41
64841;BME280;51307;52.162;7.560;2022-12-15T01:51:39;100073.00;;;-6.74;81.57
64841;BME280;51307;52.162;7.560;2022-12-15T01:54:18;100075.13;;;-6.85;81.54
64841;BME280;51307;52.162;7.560;2022-12-15T01:56:49;100078.47;;;-6.85;81.66
64841;BME280;51307;52.162;7.560;2022-12-15T01:59:22;100079.94;;;-7.01;81.66
64841;BME280;51307;52.162;7.560;2022-12-15T02:01:49;100082.66;;;-6.84;81.78
64841;BME280;51307;52.162;7.560;2022-12-15T02:04:17;100079.47;;;-6.89;81.36
64841;BME280;51307;52.162;7.560;2022-12-15T02:06:44;100079.44;;;-6.87;81.33
64841;BME280;51307;52.162;7.560;2022-12-15T02:09:10;100077.66;;;-7.07;81.90
64841;BME280;51307;52.162;7.560;2022-12-15T02:11:58;100082.84;;;-7.11;82.00
64841;BME280;51307;52.162;7.560;2022-12-15T02:34:21;100102.44;;;-7.14;81.56
64841;BME280;51307;52.162;7.560;2022-12-15T02:36:54;100103.91;;;-7.08;81.60
64841;BME280;51307;52.162;7.560;2022-12-15T02:39:22;100101.41;;;-7.10;81.59
64841;BME280;51307;52.162;7.560;2022-12-15T02:41:48;100098.88;;;-7.10;81.94
64841;BME280;51307;52.162;7.560;2022-12-15T02:44:33;100105.41;;;-7.03;82.01
64841;BME280;51307;52.162;7.560;2022-12-15T02:58:00;100094.94;;;-7.17;81.66
64841;BME280;51307;52.162;7.560;2022-12-15T03:00:29;100096.81;;;-7.22;81.56
64841;BME280;51307;52.162;7.560;2022-12-15T03:02:58;100094.16;;;-7.19;81.29
64841;BME280;51307;52.162;7.560;2022-12-15T03:05:24;100096.50;;;-7.15;81.35
64841;BME280;51307;52.162;7.560;2022-12-15T03:07:52;100100.06;;;-7.19;81.22
64841;BME280;51307;52.162;7.560;2022-12-15T03:10:21;100098.13;;;-7.12;81.68
64841;BME280;51307;52.162;7.560;2022-12-15T03:12:48;100099.06;;;-7.15;81.97
64841;BME280;51307;52.162;7.560;2022-12-15T03:15:15;100100.78;;;-7.15;81.53
64841;BME280;51307;52.162;7.560;2022-12-15T03:17:40;100095.09;;;-7.22;81.66
64841;BME280;51307;52.162;7.560;2022-12-15T03:20:06;100101.75;;;-7.19;81.98
64841;BME280;51307;52.162;7.560;2022-12-15T03:22:34;100096.22;;;-7.29;82.00
64841;BME280;51307;52.162;7.560;2022-12-15T03:24:59;100100.72;;;-7.14;81.61
64841;BME280;51307;52.162;7.560;2022-12-15T03:27:25;100110.97;;;-7.17;81.74
64841;BME280;51307;52.162;7.560;2022-12-15T03:29:51;100112.41;;;-7.09;81.65
64841;BME280;51307;52.162;7.560;2022-12-15T03:32:16;100113.69;;;-7.21;81.67
64841;BME280;51307;52.162;7.560;2022-12-15T03:34:42;100126.66;;;-7.29;82.33
64841;BME280;51307;52.162;7.560;2022-12-15T03:37:07;100127.75;;;-7.13;82.12
64841;BME280;51307;52.162;7.560;2022-12-15T03:39:33;100128.41;;;-7.07;82.08
64841;BME280;51307;52.162;7.560;2022-12-15T03:41:59;100131.97;;;-6.90;82.12
64841;BME280;51307;52.162;7.560;2022-12-15T03:44:24;100130.97;;;-6.85;82.10
64841;BME280;51307;52.162;7.560;2022-12-15T03:46:50;100131.25;;;-6.93;82.18
64841;BME280;51307;52.162;7.560;2022-12-15T03:49:15;100130.28;;;-7.13;82.44
64841;BME280;51307;52.162;7.560;2022-12-15T03:51:41;100131.59;;;-7.02;82.32
64841;BME280;51307;52.162;7.560;2022-12-15T03:54:06;100137.03;;;-7.12;82.55
64841;BME280;51307;52.162;7.560;2022-12-15T03:56:32;100135.13;;;-7.06;82.27
64841;BME280;51307;52.162;7.560;2022-12-15T03:58:57;100137.44;;;-7.00;82.29
64841;BME280;51307;52.162;7.560;2022-12-15T04:01:29;100141.88;;;-7.05;81.92
64841;BME280;51307;52.162;7.560;2022-12-15T04:03:56;100140.34;;;-7.09;81.92
64841;BME280;51307;52.162;7.560;2022-12-15T04:06:22;100141.19;;;-7.11;82.36
64841;BME280;51307;52.162;7.560;2022-12-15T04:08:48;100149.03;;;-7.17;82.79
64841;BME280;51307;52.162;7.560;2022-12-15T04:11:13;100138.28;;;-6.78;82.29
64841;BME280;51307;52.162;7.560;2022-12-15T04:13:39;100137.53;;;-7.03;82.18
64841;BME280;51307;52.162;7.560;2022-12-15T04:16:04;100141.38;;;-7.15;82.33
64841;BME280;51307;52.162;7.560;2022-12-15T04:18:30;100154.34;;;-7.23;82.64
64841;BME280;51307;52.162;7.560;2022-12-15T04:20:56;100143.75;;;-7.11;82.33
64841;BME280;51307;52.162;7.560;2022-12-15T04:23:21;100156.44;;;-7.11;82.27
64841;BME280;51307;52.162;7.560;2022-12-15T04:25:47;100162.66;;;-7.19;82.60
64841;BME280;51307;52.162;7.560;2022-12-15T04:28:31;100156.38;;;-7.33;82.69
64841;BME280;51307;52.162;7.560;2022-12-15T04:31:29;100154.88;;;-7.15;82.59
64841;BME280;51307;52.162;7.560;2022-12-15T04:34:18;100155.06;;;-7.19;82.92
64841;BME280;51307;52.162;7.560;2022-12-15T04:37:06;100164.66;;;-7.27;82.98
64841;BME280;51307;52.162;7.560;2022-12-15T04:39:54;100166.97;;;-7.21;82.81
64841;BME280;51307;52.162;7.560;2022-12-15T04:42:43;100168.81;;;-7.25;82.71
64841;BME280;51307;52.162;7.560;2022-12-15T04:45:28;100169.56;;;-7.23;82.55
64841;BME280;51307;52.162;7.560;2022-12-15T04:48:13;100172.81;;;-7.19;82.18
64841;BME280;51307;52.162;7.560;2022-12-15T04:50:57;100171.88;;;-7.40;82.85
64841;BME280;51307;52.162;7.560;2022-12-15T04:53:43;100173.19;;;-7.30;82.45
64841;BME280;51307;52.162;7.560;2022-12-15T04:56:27;100172.28;;;-7.27;82.87
64841;BME280;51307;52.162;7.560;2022-12-15T04:59:12;100175.91;;;-7.35;82.87
64841;BME280;51307;52.162;7.560;2022-12-15T05:01:56;100186.59;;;-7.26;82.62
64841;BME280;51307;52.162;7.560;2022-12-15T05:04:40;100182.44;;;-7.27;82.43
64841;BME280;51307;52.162;7.560;2022-12-15T05:07:25;100183.81;;;-7.19;82.10
64841;BME280;51307;52.162;7.560;2022-12-15T05:10:09;100177.34;;;-7.27;83.00
64841;BME280;51307;52.162;7.560;2022-12-15T05:12:53;100174.19;;;-7.11;83.46
64841;BME280;51307;52.162;7.560;2022-12-15T05:15:37;100178.78;;;-7.20;83.22
64841;BME280;51307;52.162;7.560;2022-12-15T05:18:21;100175.13;;;-7.13;83.43
64841;BME280;51307;52.162;7.560;2022-12-15T05:21:06;100180.53;;;-7.22;83.85
64841;BME280;51307;52.162;7.560;2022-12-15T05:23:50;100173.31;;;-7.09;84.06
64841;BME280;51307;52.162;7.560;2022-12-15T05:26:34;100182.31;;;-7.01;83.61
64841;BME280;51307;52.162;7.560;2022-12-15T05:29:19;100180.03;;;-7.08;83.91
64841;BME280;51307;52.162;7.560;2022-12-15T05:32:03;100187.81;;;-7.13;83.78
64841;BME280;51307;52.162;7.560;2022-12-15T05:34:31;100187.31;;;-6.99;83.34
64841;BME280;51307;52.162;7.560;2022-12-15T05:36:59;100188.75;;;-7.16;83.83
64841;BME280;51307;52.162;7.560;2022-12-15T05:39:26;100183.47;;;-7.09;83.47
64841;BME280;51307;52.162;7.560;2022-12-15T05:41:53;100181.03;;;-7.13;83.42
64841;BME280;51307;52.162;7.560;2022-12-15T05:44:19;100185.41;;;-7.16;83.30
64841;BME280;51307;52.162;7.560;2022-12-15T05:46:45;100198.09;;;-7.16;83.29
64841;BME280;51307;52.162;7.560;2022-12-15T05:49:14;100194.63;;;-7.14;83.02
64841;BME280;51307;52.162;7.560;2022-12-15T05:51:42;100195.97;;;-7.28;83.65
64841;BME280;51307;52.162;7.560;2022-12-15T05:54:08;100200.88;;;-7.24;83.70
64841;BME280;51307;52.162;7.560;2022-12-15T05:56:35;100208.34;;;-7.19;83.85
64841;BME280;51307;52.162;7.560;2022-12-15T05:59:00;100216.06;;;-7.22;83.95
64841;BME280;51307;52.162;7.560;2022-12-15T06:01:27;100215.75;;;-7.13;83.62
64841;BME280;51307;52.162;7.560;2022-12-15T06:03:53;100216.56;;;-7.13;83.80
64841;BME280;51307;52.162;7.560;2022-12-15T06:06:19;100222.25;;;-7.06;83.69
64841;BME280;51307;52.162;7.560;2022-12-15T06:08:45;100224.16;;;-7.13;83.87
64841;BME280;51307;52.162;7.560;2022-12-15T06:11:12;100227.00;;;-7.20;83.99
64841;BME280;51307;52.162;7.560;2022-12-15T06:13:38;100226.38;;;-7.27;84.00
64841;BME280;51307;52.162;7.560;2022-12-15T06:16:06;100227.09;;;-7.23;83.73
64841;BME280;51307;52.162;7.560;2022-12-15T06:18:38;100236.53;;;-7.27;83.44
64841;BME280;51307;52.162;7.560;2022-12-15T06:21:07;100230.69;;;-7.29;83.32
64841;BME280;51307;52.162;7.560;2022-12-15T06:23:34;100237.81;;;-7.15;83.04
64841;BME280;51307;52.162;7.560;2022-12-15T06:28:33;100240.38;;;-7.17;83.32
64841;BME280;51307;52.162;7.560;2022-12-15T06:31:01;100249.63;;;-7.14;83.54
64841;BME280;51307;52.162;7.560;2022-12-15T06:33:28;100253.84;;;-7.15;83.34
64841;BME280;51307;52.162;7.560;2022-12-15T06:35:55;100248.78;;;-7.15;83.55
64841;BME280;51307;52.162;7.560;2022-12-15T06:38:20;100241.13;;;-7.13;83.64
64841;BME280;51307;52.162;7.560;2022-12-15T06:40:57;100241.84;;;-7.09;83.67
64841;BME280;51307;52.162;7.560;2022-12-15T06:43:22;100241.88;;;-7.11;83.41
64841;BME280;51307;52.162;7.560;2022-12-15T06:45:49;100242.63;;;-7.07;83.22
64841;BME280;51307;52.162;7.560;2022-12-15T06:48:16;100243.53;;;-7.10;82.99
64841;BME280;51307;52.162;7.560;2022-12-15T06:50:42;100247.53;;;-7.28;82.89
64841;BME280;51307;52.162;7.560;2022-12-15T06:53:08;100245.22;;;-7.09;82.78
64841;BME280;51307;52.162;7.560;2022-12-15T06:55:33;100254.28;;;-7.03;82.58
64841;BME280;51307;52.162;7.560;2022-12-15T06:57:59;100248.94;;;-7.19;82.78
64841;BME280;51307;52.162;7.560;2022-12-15T07:00:24;100251.25;;;-7.13;82.73
64841;BME280;51307;52.162;7.560;2022-12-15T07:02:52;100241.78;;;-7.08;82.63
64841;BME280;51307;52.162;7.560;2022-12-15T07:05:17;100231.13;;;-7.18;83.20
64841;BME280;51307;52.162;7.560;2022-12-15T07:07:43;100236.97;;;-7.16;83.29
64841;BME280;51307;52.162;7.560;2022-12-15T07:10:09;100239.88;;;-7.26;83.35
64841;BME280;51307;52.162;7.560;2022-12-15T07:12:35;100228.31;;;-7.10;83.54
64841;BME280;51307;52.162;7.560;2022-12-15T07:15:01;100241.28;;;-7.18;83.31
64841;BME280;51307;52.162;7.560;2022-12-15T07:17:27;100251.25;;;-7.13;83.10
64841;BME280;51307;52.162;7.560;2022-12-15T07:19:56;100255.34;;;-7.09;82.90
64841;BME280;51307;52.162;7.560;2022-12-15T07:22:21;100254.63;;;-7.13;83.37
64841;BME280;51307;52.162;7.560;2022-12-15T07:24:47;100248.78;;;-7.15;83.32
64841;BME280;51307;52.162;7.560;2022-12-15T07:27:13;100253.50;;;-7.29;83.83
64841;BME280;51307;52.162;7.560;2022-12-15T07:29:39;100249.53;;;-7.13;83.53
64841;BME280;51307;52.162;7.560;2022-12-15T07:32:04;100259.25;;;-7.24;83.88
64841;BME280;51307;52.162;7.560;2022-12-15T07:34:30;100271.56;;;-7.13;84.27
64841;BME280;51307;52.162;7.560;2022-12-15T07:36:55;100274.16;;;-7.15;84.28
64841;BME280;51307;52.162;7.560;2022-12-15T07:39:21;100276.69;;;-7.15;84.17
64841;BME280;51307;52.162;7.560;2022-12-15T07:41:46;100286.06;;;-7.17;83.93
64841;BME280;51307;52.162;7.560;2022-12-15T07:44:12;100294.72;;;-7.22;83.88
64841;BME280;51307;52.162;7.560;2022-12-15T07:46:39;100293.31;;;-7.31;84.30
64841;BME280;51307;52.162;7.560;2022-12-15T07:49:04;100299.69;;;-7.19;83.68
64841;BME280;51307;52.162;7.560;2022-12-15T07:51:30;100313.47;;;-7.26;83.92
64841;BME280;51307;52.162;7.560;2022-12-15T07:53:55;100309.63;;;-7.13;83.75
64841;BME280;51307;52.162;7.560;2022-12-15T07:56:21;100318.13;;;-7.14;83.66
64841;BME280;51307;52.162;7.560;2022-12-15T07:58:46;100303.06;;;-7.19;83.53
64841;BME280;51307;52.162;7.560;2022-12-15T08:01:13;100304.31;;;-7.05;83.78
64841;BME280;51307;52.162;7.560;2022-12-15T08:03:40;100301.03;;;-7.09;83.72
64841;BME280;51307;52.162;7.560;2022-12-15T08:06:08;100307.09;;;-7.13;84.43
64841;BME280;51307;52.162;7.560;2022-12-15T08:08:38;100307.66;;;-7.05;84.10
64841;BME280;51307;52.162;7.560;2022-12-15T08:11:13;100317.97;;;-7.09;84.04
64841;BME280;51307;52.162;7.560;2022-12-15T08:13:40;100318.66;;;-7.04;84.08
64841;BME280;51307;52.162;7.560;2022-12-15T08:16:06;100321.69;;;-6.95;84.43
64841;BME280;51307;52.162;7.560;2022-12-15T08:18:32;100316.56;;;-6.93;84.56
64841;BME280;51307;52.162;7.560;2022-12-15T08:21:05;100321.38;;;-6.85;84.92
64841;BME280;51307;52.162;7.560;2022-12-15T08:23:32;100330.22;;;-6.72;84.80
64841;BME280;51307;52.162;7.560;2022-12-15T08:26:06;100327.06;;;-6.55;84.71
64841;BME280;51307;52.162;7.560;2022-12-15T08:28:36;100335.22;;;-6.71;85.46
64841;BME280;51307;52.162;7.560;2022-12-15T08:31:04;100345.22;;;-6.66;85.61
64841;BME280;51307;52.162;7.560;2022-12-15T08:33:30;100339.13;;;-6.60;85.21
64841;BME280;51307;52.162;7.560;2022-12-15T08:35:58;100340.94;;;-6.64;85.30
64841;BME280;51307;52.162;7.560;2022-12-15T08:38:23;100348.94;;;-6.51;85.44
64841;BME280;51307;52.162;7.560;2022-12-15T08:40:49;100332.94;;;-6.53;85.53
64841;BME280;51307;52.162;7.560;2022-12-15T08:43:14;100340.00;;;-6.38;85.41
64841;BME280;51307;52.162;7.560;2022-12-15T08:45:40;100346.63;;;-6.34;85.59
64841;BME280;51307;52.162;7.560;2022-12-15T08:48:05;100345.28;;;-6.20;85.58
64841;BME280;51307;52.162;7.560;2022-12-15T08:50:31;100341.53;;;-6.34;86.16
64841;BME280;51307;52.162;7.560;2022-12-15T08:52:56;100336.66;;;-6.16;86.24
64841;BME280;51307;52.162;7.560;2022-12-15T08:55:22;100345.44;;;-6.01;86.18
64841;BME280;51307;52.162;7.560;2022-12-15T08:57:49;100338.59;;;-5.99;86.47
64841;BME280;51307;52.162;7.560;2022-12-15T09:00:15;100351.97;;;-5.96;86.62
64841;BME280;51307;52.162;7.560;2022-12-15T09:02:42;100348.56;;;-5.95;86.87
64841;BME280;51307;52.162;7.560;2022-12-15T09:05:08;100344.94;;;-5.89;87.23
64841;BME280;51307;52.162;7.560;2022-12-15T09:07:34;100352.41;;;-5.84;87.11
64841;BME280;51307;52.162;7.560;2022-12-15T09:09:59;100348.50;;;-5.71;87.15
64841;BME280;51307;52.162;7.560;2022-12-15T09:12:25;100346.38;;;-5.60;87.37
64841;BME280;51307;52.162;7.560;2022-12-15T09:14:50;100350.88;;;-5.67;87.70
64841;BME280;51307;52.162;7.560;2022-12-15T09:17:16;100340.53;;;-5.62;87.86
64841;BME280;51307;52.162;7.560;2022-12-15T09:19:41;100342.94;;;-5.59;87.91
64841;BME280;51307;52.162;7.560;2022-12-15T09:22:07;100351.59;;;-5.42;88.05
64841;BME280;51307;52.162;7.560;2022-12-15T09:24:32;100355.63;;;-5.37;88.28
64841;BME280;51307;52.162;7.560;2022-12-15T09:26:58;100360.66;;;-5.35;88.73
64841;BME280;51307;52.162;7.560;2022-12-15T09:29:23;100359.47;;;-5.27;88.94
64841;BME280;51307;52.162;7.560;2022-12-15T09:31:49;100364.63;;;-5.08;88.64
64841;BME280;51307;52.162;7.560;2022-12-15T09:34:15;100365.97;;;-5.19;89.48
64841;BME280;51307;52.162;7.560;2022-12-15T09:36:40;100375.94;;;-5.15;89.63
64841;BME280;51307;52.162;7.560;2022-12-15T09:39:06;100372.19;;;-5.06;89.57
64841;BME280;51307;52.162;7.560;2022-12-15T09:41:34;100380.06;;;-4.92;89.32
64841;BME280;51307;52.162;7.560;2022-12-15T09:44:11;100385.56;;;-5.01;89.94
64841;BME280;51307;52.162;7.560;2022-12-15T09:52:05;100397.00;;;-4.70;90.09
64841;BME280;51307;52.162;7.560;2022-12-15T09:54:34;100394.47;;;-4.70;90.24
64841;BME280;51307;52.162;7.560;2022-12-15T09:57:06;100388.91;;;-4.59;90.20
64841;BME280;51307;52.162;7.560;2022-12-15T09:59:54;100389.16;;;-4.66;90.27
64841;BME280;51307;52.162;7.560;2022-12-15T10:02:44;100389.47;;;-4.53;90.64
64841;BME280;51307;52.162;7.560;2022-12-15T10:05:25;100378.81;;;-4.42;90.56
64841;BME280;51307;52.162;7.560;2022-12-15T10:07:54;100377.84;;;-4.39;90.84
64841;BME280;51307;52.162;7.560;2022-12-15T10:10:32;100366.44;;;-4.31;90.71
64841;BME280;51307;52.162;7.560;2022-12-15T10:13:10;100368.84;;;-4.28;90.61
64841;BME280;51307;52.162;7.560;2022-12-15T10:16:00;100374.91;;;-4.11;90.50
64841;BME280;51307;52.162;7.560;2022-12-15T10:18:37;100378.97;;;-4.07;90.71
64841;BME280;51307;52.162;7.560;2022-12-15T10:21:10;100393.47;;;-4.08;91.10
64841;BME280;51307;52.162;7.560;2022-12-15T10:23:38;100387.25;;;-4.02;91.33
64841;BME280;51307;52.162;7.560;2022-12-15T10:26:21;100383.38;;;-3.92;91.59
64841;BME280;51307;52.162;7.560;2022-12-15T10:32:16;100400.34;;;-3.91;92.54
64841;BME280;51307;52.162;7.560;2022-12-15T10:34:42;100396.41;;;-3.79;92.54
64841;BME280;51307;52.162;7.560;2022-12-15T10:37:15;100397.03;;;-3.74;92.77
64841;BME280;51307;52.162;7.560;2022-12-15T10:39:44;100390.72;;;-3.67;93.04
64841;BME280;51307;52.162;7.560;2022-12-15T10:42:13;100390.59;;;-3.64;92.91
64841;BME280;51307;52.162;7.560;2022-12-15T10:44:42;100399.47;;;-3.53;93.29
64841;BME280;51307;52.162;7.560;2022-12-15T10:47:34;100398.41;;;-3.49;93.28
64841;BME280;51307;52.162;7.560;2022-12-15T10:50:21;100391.06;;;-3.38;93.67
64841;BME280;51307;52.162;7.560;2022-12-15T10:52:47;100390.19;;;-3.37;93.82
64841;BME280;51307;52.162;7.560;2022-12-15T10:58:01;100387.13;;;-3.26;93.76
64841;BME280;51307;52.162;7.560;2022-12-15T11:00:29;100381.69;;;-3.38;94.05
64841;BME280;51307;52.162;7.560;2022-12-15T11:02:56;100379.88;;;-3.35;94.31
64841;BME280;51307;52.162;7.560;2022-12-15T11:05:23;100375.31;;;-3.29;94.67
64841;BME280;51307;52.162;7.560;2022-12-15T11:07:55;100380.13;;;-3.23;94.71
64841;BME280;51307;52.162;7.560;2022-12-15T11:10:54;100384.34;;;-3.22;94.78
64841;BME280;51307;52.162;7.560;2022-12-15T11:13:39;100392.97;;;-3.07;94.84
64841;BME280;51307;52.162;7.560;2022-12-15T11:16:17;100388.38;;;-3.00;94.74
64841;BME280;51307;52.162;7.560;2022-12-15T11:18:46;100390.56;;;-2.92;94.74
64841;BME280;51307;52.162;7.560;2022-12-15T11:26:55;100404.38;;;-2.79;95.18
64841;BME280;51307;52.162;7.560;2022-12-15T11:32:19;100393.56;;;-2.67;95.17
64841;BME280;51307;52.162;7.560;2022-12-15T11:34:46;100385.72;;;-2.64;95.34
64841;BME280;51307;52.162;7.560;2022-12-15T11:42:59;100392.53;;;-2.47;94.99
64841;BME280;51307;52.162;7.560;2022-12-15T11:45:48;100392.06;;;-2.38;94.87
64841;BME280;51307;52.162;7.560;2022-12-15T11:48:33;100378.09;;;-2.32;95.14
64841;BME280;51307;52.162;7.560;2022-12-15T11:51:05;100373.50;;;-2.25;95.09
64841;BME280;51307;52.162;7.560;2022-12-15T11:56:39;100367.00;;;-2.15;95.03
64841;BME280;51307;52.162;7.560;2022-12-15T12:07:21;100379.63;;;-1.96;94.77
64841;BME280;51307;52.162;7.560;2022-12-15T12:12:46;100372.59;;;-1.93;94.71
64841;BME280;51307;52.162;7.560;2022-12-15T12:18:20;100373.41;;;-1.92;94.67
64841;BME280;51307;52.162;7.560;2022-12-15T12:21:15;100367.00;;;-1.99;94.87
64841;BME280;51307;52.162;7.560;2022-12-15T12:27:01;100374.59;;;-1.82;94.98
64841;BME280;51307;52.162;7.560;2022-12-15T12:29:52;100371.78;;;-1.77;94.90
64841;BME280;51307;52.162;7.560;2022-12-15T12:32:26;100371.78;;;-1.77;95.10
64841;BME280;51307;52.162;7.560;2022-12-15T12:35:15;100368.63;;;-1.66;94.81
64841;BME280;51307;52.162;7.560;2022-12-15T12:43:07;100367.00;;;-1.67;95.04
64841;BME280;51307;52.162;7.560;2022-12-15T12:45:54;100356.50;;;-1.63;95.12
64841;BME280;51307;52.162;7.560;2022-12-15T12:48:39;100357.22;;;-1.61;95.27
64841;BME280;51307;52.162;7.560;2022-12-15T12:53:44;100346.72;;;-1.56;94.97
64841;BME280;51307;52.162;7.560;2022-12-15T12:56:39;100347.03;;;-1.46;94.66
64841;BME280;51307;52.162;7.560;2022-12-15T13:07:37;100337.31;;;-1.25;94.10
64841;BME280;51307;52.162;7.560;2022-12-15T13:18:05;100334.28;;;-1.18;93.74
64841;BME280;51307;52.162;7.560;2022-12-15T13:20:36;100329.97;;;-1.17;93.64
64841;BME280;51307;52.162;7.560;2022-12-15T13:44:40;100324.72;;;-0.85;93.32
64841;BME280;51307;52.162;7.560;2022-12-15T13:47:15;100328.47;;;-0.91;93.19
64841;BME280;51307;52.162;7.560;2022-12-15T13:49:55;100321.50;;;-0.89;93.30
64841;BME280;51307;52.162;7.560;2022-12-15T13:54:59;100318.13;;;-0.90;93.00
64841;BME280;51307;52.162;7.560;2022-12-15T13:57:28;100320.34;;;-0.83;92.93
64841;BME280;51307;52.162;7.560;2022-12-15T14:00:01;100322.97;;;-0.85;92.94
64841;BME280;51307;52.162;7.560;2022-12-15T14:02:34;100330.13;;;-0.90;93.01
64841;BME280;51307;52.162;7.560;2022-12-15T14:13:02;100326.38;;;-0.84;93.20
64841;BME280;51307;52.162;7.560;2022-12-15T14:15:32;100324.00;;;-0.88;93.10
64841;BME280;51307;52.162;7.560;2022-12-15T14:18:00;100321.34;;;-0.86;93.12
64841;BME280;51307;52.162;7.560;2022-12-15T14:20:36;100327.19;;;-0.84;93.15
64841;BME280;51307;52.162;7.560;2022-12-15T14:23:16;100325.53;;;-0.85;93.28
64841;BME280;51307;52.162;7.560;2022-12-15T14:25:55;100326.28;;;-0.83;92.96
64841;BME280;51307;52.162;7.560;2022-12-15T14:28:26;100324.38;;;-0.79;92.88
64841;BME280;51307;52.162;7.560;2022-12-15T14:30:52;100314.56;;;-0.87;93.05
64841;BME280;51307;52.162;7.560;2022-12-15T14:33:17;100318.13;;;-0.90;92.99
64841;BME280;51307;52.162;7.560;2022-12-15T14:35:47;100316.66;;;-0.94;92.95
64841;BME280;51307;52.162;7.560;2022-12-15T14:38:17;100306.69;;;-0.98;93.17
64841;BME280;51307;52.162;7.560;2022-12-15T14:40:47;100309.25;;;-0.98;93.26
64841;BME280;51307;52.162;7.560;2022-12-15T14:43:24;100311.88;;;-1.00;93.32
64841;BME280;51307;52.162;7.560;2022-12-15T14:46:10;100312.53;;;-0.96;92.95
64841;BME280;51307;52.162;7.560;2022-12-15T14:48:38;100315.06;;;-1.11;92.90
64841;BME280;51307;52.162;7.560;2022-12-15T14:51:10;100309.31;;;-1.14;92.99
64841;BME280;51307;52.162;7.560;2022-12-15T14:53:40;100313.63;;;-1.15;93.30
64841;BME280;51307;52.162;7.560;2022-12-15T14:59:00;100313.06;;;-1.20;93.25
64841;BME280;51307;52.162;7.560;2022-12-15T15:01:32;100316.81;;;-1.25;93.57
64841;BME280;51307;52.162;7.560;2022-12-15T15:04:04;100324.03;;;-1.32;94.06
64841;BME280;51307;52.162;7.560;2022-12-15T15:06:39;100310.03;;;-1.26;93.68
64841;BME280;51307;52.162;7.560;2022-12-15T15:09:24;100308.13;;;-1.23;93.37
64841;BME280;51307;52.162;7.560;2022-12-15T15:11:54;100297.28;;;-1.28;93.49
64841;BME280;51307;52.162;7.560;2022-12-15T15:14:25;100304.63;;;-1.36;93.58
64841;BME280;51307;52.162;7.560;2022-12-15T15:17:06;100304.28;;;-1.30;93.53
64841;BME280;51307;52.162;7.560;2022-12-15T15:19:36;100294.44;;;-1.38;93.69
64841;BME280;51307;52.162;7.560;2022-12-15T15:22:03;100305.78;;;-1.42;93.52
64841;BME280;51307;52.162;7.560;2022-12-15T15:24:34;100304.78;;;-1.39;93.59
64841;BME280;51307;52.162;7.560;2022-12-15T15:27:23;100294.72;;;-1.42;93.78
64841;BME280;51307;52.162;7.560;2022-12-15T15:29:50;100295.41;;;-1.55;93.73
64841;BME280;51307;52.162;7.560;2022-12-15T15:32:19;100288.72;;;-1.57;93.94
64841;BME280;51307;52.162;7.560;2022-12-15T15:34:45;100280.69;;;-1.65;94.13